createdAt,value
2018-12-30T00:02:04.621Z,99004.72
2018-12-30T00:04:34.869Z,98991.09
2018-12-30T00:07:05.652Z,99001.48
2018-12-30T00:09:36.966Z,99004.64
2018-12-30T00:12:07.474Z,99015.86
2018-12-30T00:14:37.881Z,99018.67
2018-12-30T00:17:08.210Z,99022.50
2018-12-30T00:19:42.336Z,99024.60
2018-12-30T00:22:10.671Z,99046.20
2018-12-30T00:24:40.942Z,99035.45
2018-12-30T00:27:11.113Z,99042.70
2018-12-30T00:29:41.510Z,99013.13
2018-12-30T00:32:11.837Z,99010.95
2018-12-30T00:34:42.645Z,99012.64
2018-12-30T00:37:12.796Z,99006.38
2018-12-30T00:39:43.001Z,98993.92
2018-12-30T00:42:13.234Z,98995.83
2018-12-30T00:44:43.357Z,98969.27
2018-12-30T00:47:14.013Z,98971.34
2018-12-30T00:49:44.273Z,98983.50
2018-12-30T00:52:14.658Z,98982.75
2018-12-30T00:54:44.921Z,98985.34
2018-12-30T00:57:15.187Z,98989.38
2018-12-30T00:59:45.893Z,98991.03
2018-12-30T01:02:16.178Z,98989.70
2018-12-30T01:04:46.434Z,98992.22
2018-12-30T01:07:17.829Z,98998.44
2018-12-30T01:09:48.154Z,98986.91
2018-12-30T01:12:20.757Z,98989.74
2018-12-30T01:14:51.010Z,98997.13
2018-12-30T01:17:21.227Z,98998.84
2018-12-30T01:19:51.743Z,98996.38
2018-12-30T01:22:21.966Z,98988.56
2018-12-30T01:24:52.254Z,98993.01
2018-12-30T01:27:22.536Z,98997.13
2018-12-30T01:29:59.640Z,99011.56
2018-12-30T01:32:29.955Z,99013.97
2018-12-30T01:35:00.517Z,98995.78
2018-12-30T01:37:30.815Z,99008.19
2018-12-30T01:40:01.098Z,99021.25
2018-12-30T01:42:31.485Z,99015.48
2018-12-30T01:45:01.895Z,99017.99
2018-12-30T01:47:32.378Z,99015.64
2018-12-30T01:50:02.705Z,99017.30
2018-12-30T01:52:32.948Z,99028.77
2018-12-30T01:55:03.350Z,99034.50
2018-12-30T01:57:33.636Z,99022.95
2018-12-30T02:00:04.047Z,99025.83
2018-12-30T02:02:34.347Z,99027.16
2018-12-30T02:05:04.672Z,99028.73
2018-12-30T02:07:34.919Z,99030.01
2018-12-30T02:10:05.994Z,99029.88
2018-12-30T02:12:36.309Z,99049.20
2018-12-30T02:15:06.861Z,99043.93
2018-12-30T02:17:37.172Z,99048.22
2018-12-30T02:20:07.590Z,99059.03
2018-12-30T02:22:37.860Z,99077.30
2018-12-30T02:25:08.196Z,99081.75
2018-12-30T02:27:38.479Z,99087.49
2018-12-30T02:30:08.963Z,99089.80
2018-12-30T02:32:39.477Z,99083.00
2018-12-30T02:35:09.761Z,99084.19
2018-12-30T02:37:40.070Z,99085.52
2018-12-30T02:40:10.359Z,99080.53
2018-12-30T02:42:40.703Z,99071.74
2018-12-30T02:45:11.008Z,99072.73
2018-12-30T02:47:41.156Z,99075.58
2018-12-30T02:50:11.465Z,99082.27
2018-12-30T02:52:41.598Z,99078.02
2018-12-30T02:55:31.036Z,99079.92
2018-12-30T02:58:12.803Z,99081.19
2018-12-30T03:01:02.179Z,99021.86
2018-12-30T03:03:44.582Z,99076.90
2018-12-30T03:06:33.923Z,99072.81
2018-12-30T03:09:16.235Z,99018.27
2018-12-30T03:12:05.604Z,99075.69
2018-12-30T03:14:48.031Z,99084.81
2018-12-30T03:17:37.419Z,99104.48
2018-12-30T03:20:19.123Z,99092.36
2018-12-30T03:23:08.605Z,99106.16
2018-12-30T03:25:50.866Z,99102.41
2018-12-30T03:28:40.222Z,99075.98
2018-12-30T03:31:22.644Z,99109.06
2018-12-30T03:34:11.976Z,99107.28
2018-12-30T03:37:01.340Z,99109.46
2018-12-30T03:39:43.706Z,99059.93
2018-12-30T03:42:33.189Z,99063.36
2018-12-30T03:45:15.514Z,99113.16
2018-12-30T03:48:05.018Z,99120.94
2018-12-30T03:50:47.310Z,99122.30
2018-12-30T03:53:55.703Z,99071.36
2018-12-30T03:56:38.241Z,99087.06
2018-12-30T03:59:27.678Z,99098.81
2018-12-30T04:02:09.909Z,99091.59
2018-12-30T04:04:59.390Z,99078.59
2018-12-30T04:07:41.974Z,99081.06
2018-12-30T04:10:31.392Z,99091.78
2018-12-30T04:13:13.613Z,99072.72
2018-12-30T04:16:02.968Z,99041.40
2018-12-30T04:18:45.485Z,99089.87
2018-12-30T04:21:34.873Z,99086.67
2018-12-30T04:24:17.227Z,99072.98
2018-12-30T04:27:06.586Z,99101.58
2018-12-30T04:29:48.366Z,99045.49
2018-12-30T04:32:37.832Z,99105.17
2018-12-30T04:35:19.937Z,99104.02
2018-12-30T04:38:09.338Z,99111.28
2018-12-30T04:40:51.081Z,99112.56
2018-12-30T04:43:40.476Z,99082.88
2018-12-30T04:46:10.716Z,99127.05
2018-12-30T04:48:40.886Z,99130.08
2018-12-30T04:51:11.227Z,99137.80
2018-12-30T04:53:41.585Z,99126.25
2018-12-30T04:56:11.878Z,99120.15
2018-12-30T04:58:42.137Z,99129.55
2018-12-30T05:01:12.387Z,99127.02
2018-12-30T05:03:42.667Z,99131.33
2018-12-30T05:06:12.978Z,99135.95
2018-12-30T05:08:43.246Z,99141.56
2018-12-30T05:11:14.766Z,99144.66
2018-12-30T05:13:45.094Z,99148.78
2018-12-30T05:16:15.470Z,99153.30
2018-12-30T05:18:45.653Z,99158.71
2018-12-30T05:21:15.936Z,99160.39
2018-12-30T05:23:46.183Z,99162.21
2018-12-30T05:26:16.002Z,99156.07
2018-12-30T05:28:46.207Z,99163.16
2018-12-30T05:31:16.432Z,99162.51
2018-12-30T05:33:46.632Z,99164.45
2018-12-30T05:36:16.989Z,99157.81
2018-12-30T05:38:47.190Z,99165.41
2018-12-30T05:41:17.515Z,99167.09
2018-12-30T05:43:47.853Z,99178.52
2018-12-30T05:46:18.242Z,99179.00
2018-12-30T05:48:48.581Z,99184.48
2018-12-30T05:51:18.853Z,99180.59
2018-12-30T05:53:49.047Z,99185.44
2018-12-30T05:56:19.337Z,99188.73
2018-12-30T05:58:49.627Z,99186.20
2018-12-30T06:01:19.913Z,99192.30
2018-12-30T06:03:50.256Z,99199.89
2018-12-30T06:06:20.579Z,99201.58
2018-12-30T06:08:50.965Z,99213.95
2018-12-30T06:11:21.326Z,99211.44
2018-12-30T06:13:51.505Z,99222.22
2018-12-30T06:16:21.756Z,99210.90
2018-12-30T06:18:52.030Z,99218.92
2018-12-30T06:21:22.309Z,99225.22
2018-12-30T06:23:52.628Z,99225.55
2018-12-30T06:26:22.930Z,99243.89
2018-12-30T06:28:53.314Z,99242.89
2018-12-30T06:31:23.695Z,99249.00
2018-12-30T06:33:53.950Z,99254.77
2018-12-30T06:36:24.137Z,99269.28
2018-12-30T06:38:54.439Z,99274.05
2018-12-30T06:41:25.014Z,99277.86
2018-12-30T06:43:55.363Z,99274.89
2018-12-30T06:46:25.571Z,99272.42
2018-12-30T06:48:55.806Z,99280.64
2018-12-30T06:51:26.120Z,99277.84
2018-12-30T06:53:56.371Z,99284.32
2018-12-30T06:56:26.572Z,99286.77
2018-12-30T06:58:56.422Z,99291.10
2018-12-30T07:01:26.757Z,99295.38
2018-12-30T07:03:56.952Z,99294.17
2018-12-30T07:06:27.294Z,99309.84
2018-12-30T07:08:57.582Z,99318.39
2018-12-30T07:11:27.892Z,99314.27
2018-12-30T07:13:58.197Z,99316.20
2018-12-30T07:16:28.515Z,99323.53
2018-12-30T07:18:58.857Z,99326.15
2018-12-30T07:21:29.001Z,99327.97
2018-12-30T07:23:59.407Z,99323.66
2018-12-30T07:26:29.915Z,99331.77
2018-12-30T07:29:00.225Z,99327.30
2018-12-30T07:31:30.397Z,99338.66
2018-12-30T07:34:00.694Z,99340.98
2018-12-30T07:36:30.842Z,99345.77
2018-12-30T07:39:01.038Z,99353.68
2018-12-30T07:41:31.168Z,99353.52
2018-12-30T07:44:01.294Z,99354.81
2018-12-30T07:46:31.398Z,99362.61
2018-12-30T07:49:01.725Z,99371.34
2018-12-30T07:51:31.952Z,99370.83
2018-12-30T07:54:02.130Z,99376.65
2018-12-30T07:56:32.443Z,99375.00
2018-12-30T07:59:02.664Z,99373.84
2018-12-30T08:01:32.966Z,99361.47
2018-12-30T08:04:03.320Z,99355.75
2018-12-30T08:06:35.582Z,99368.20
2018-12-30T08:09:08.530Z,99375.14
2018-12-30T08:11:39.025Z,99369.19
2018-12-30T08:14:09.398Z,99365.19
2018-12-30T08:16:39.711Z,99368.26
2018-12-30T08:19:10.171Z,99359.20
2018-12-30T08:21:40.399Z,99359.65
2018-12-30T08:24:10.852Z,99370.21
2018-12-30T08:26:41.121Z,99365.17
2018-12-30T08:29:11.436Z,99359.20
2018-12-30T08:31:41.708Z,99362.84
2018-12-30T08:34:12.012Z,99362.31
2018-12-30T08:36:42.208Z,99369.94
2018-12-30T08:39:12.670Z,99379.45
2018-12-30T08:41:42.966Z,99375.97
2018-12-30T08:44:13.276Z,99376.47
2018-12-30T08:46:43.545Z,99385.49
2018-12-30T08:49:13.902Z,99378.09
2018-12-30T08:51:44.080Z,99380.88
2018-12-30T08:54:15.624Z,99388.42
2018-12-30T08:56:45.867Z,99395.44
2018-12-30T08:59:16.151Z,99387.23
2018-12-30T09:01:46.412Z,99400.45
2018-12-30T09:04:16.699Z,99409.61
2018-12-30T09:06:47.162Z,99420.63
2018-12-30T09:09:17.483Z,99427.72
2018-12-30T09:11:48.707Z,99426.27
2018-12-30T09:14:18.868Z,99433.34
2018-12-30T09:16:49.161Z,99440.78
2018-12-30T09:19:19.507Z,99444.83
2018-12-30T09:21:49.744Z,99439.19
2018-12-30T09:24:20.041Z,99445.15
2018-12-30T09:26:50.300Z,99449.89
2018-12-30T09:29:20.429Z,99447.45
2018-12-30T09:31:50.702Z,99454.52
2018-12-30T09:34:20.875Z,99461.44
2018-12-30T09:36:51.309Z,99457.83
2018-12-30T09:39:27.894Z,99468.51
2018-12-30T09:41:58.179Z,99459.43
2018-12-30T09:44:28.429Z,99458.63
2018-12-30T09:46:58.649Z,99457.55
2018-12-30T09:49:28.903Z,99464.39
2018-12-30T09:51:59.161Z,99463.36
2018-12-30T09:54:29.312Z,99471.36
2018-12-30T09:56:59.717Z,99466.41
2018-12-30T09:59:29.885Z,99469.22
2018-12-30T10:02:00.263Z,99469.77
2018-12-30T10:04:30.574Z,99473.08
2018-12-30T10:07:00.775Z,99467.83
2018-12-30T10:09:31.074Z,99472.42
2018-12-30T10:12:01.324Z,99482.91
2018-12-30T10:14:31.694Z,99484.62
2018-12-30T10:17:02.061Z,99490.77
2018-12-30T10:19:32.208Z,99477.84
2018-12-30T10:22:02.590Z,99486.91
2018-12-30T10:24:32.830Z,99489.58
2018-12-30T10:27:03.187Z,99483.09
2018-12-30T10:29:33.404Z,99488.30
2018-12-30T10:32:03.730Z,99485.65
2018-12-30T10:34:33.948Z,99485.58
2018-12-30T10:37:10.149Z,99488.26
2018-12-30T10:39:40.475Z,99475.79
2018-12-30T10:42:10.976Z,99470.37
2018-12-30T10:44:41.361Z,99475.73
2018-12-30T10:47:11.498Z,99467.66
2018-12-30T10:49:41.701Z,99465.81
2018-12-30T10:52:12.096Z,99466.90
2018-12-30T10:54:42.388Z,99462.56
2018-12-30T10:57:12.703Z,99460.45
2018-12-30T10:59:43.115Z,99464.75
2018-12-30T11:02:13.488Z,99481.28
2018-12-30T11:04:43.911Z,99465.05
2018-12-30T11:07:14.359Z,99476.45
2018-12-30T11:09:44.727Z,99472.42
2018-12-30T11:12:15.198Z,99472.02
2018-12-30T11:14:45.496Z,99463.89
2018-12-30T11:17:15.879Z,99470.37
2018-12-30T11:19:46.143Z,99464.12
2018-12-30T11:22:16.690Z,99452.25
2018-12-30T11:24:46.983Z,99444.94
2018-12-30T11:27:17.499Z,99445.73
2018-12-30T11:29:47.919Z,99444.78
2018-12-30T11:32:18.328Z,99444.26
2018-12-30T11:34:48.741Z,99441.67
2018-12-30T11:37:19.177Z,99443.63
2018-12-30T11:39:49.449Z,99439.81
2018-12-30T11:42:19.903Z,99434.69
2018-12-30T11:44:50.203Z,99422.13
2018-12-30T11:47:20.481Z,99428.73
2018-12-30T11:49:50.744Z,99425.39
2018-12-30T11:52:21.199Z,99428.21
2018-12-30T11:54:51.549Z,99438.91
2018-12-30T11:57:22.034Z,99434.25
2018-12-30T11:59:52.196Z,99445.13
2018-12-30T12:02:24.224Z,99449.89
2018-12-30T12:04:54.695Z,99452.18
2018-12-30T12:07:25.066Z,99455.12
2018-12-30T12:09:55.296Z,99457.77
2018-12-30T12:12:25.706Z,99452.66
2018-12-30T12:14:56.034Z,99458.47
2018-12-30T12:17:26.384Z,99462.44
2018-12-30T12:19:56.845Z,99460.52
2018-12-30T12:22:27.118Z,99465.28
2018-12-30T12:24:57.452Z,99469.48
2018-12-30T12:27:27.786Z,99456.84
2018-12-30T12:29:58.182Z,99456.22
2018-12-30T12:32:28.550Z,99458.41
2018-12-30T12:34:59.977Z,99455.92
2018-12-30T12:37:29.753Z,99458.87
2018-12-30T12:40:00.180Z,99460.78
2018-12-30T12:42:30.609Z,99458.53
2018-12-30T12:45:00.935Z,99445.37
2018-12-30T12:47:31.376Z,99453.64
2018-12-30T12:50:01.181Z,99443.39
2018-12-30T12:52:31.489Z,99447.19
2018-12-30T12:55:01.912Z,99444.69
2018-12-30T12:57:32.167Z,99444.81
2018-12-30T13:00:02.584Z,99447.27
2018-12-30T13:02:33.053Z,99445.74
2018-12-30T13:05:03.496Z,99448.98
2018-12-30T13:07:33.802Z,99457.41
2018-12-30T13:10:04.812Z,99458.23
2018-12-30T13:12:35.168Z,99455.32
2018-12-30T13:15:06.290Z,99454.33
2018-12-30T13:17:36.612Z,99451.27
2018-12-30T13:20:07.464Z,99457.19
2018-12-30T13:22:37.777Z,99462.09
2018-12-30T13:25:08.197Z,99467.05
2018-12-30T13:27:38.589Z,99461.64
2018-12-30T13:30:09.751Z,99458.17
2018-12-30T13:32:41.104Z,99461.42
2018-12-30T13:35:11.388Z,99465.41
2018-12-30T13:37:41.830Z,99450.05
2018-12-30T13:40:12.286Z,99459.95
2018-12-30T13:42:42.595Z,99475.30
2018-12-30T13:45:13.026Z,99477.66
2018-12-30T13:47:43.359Z,99476.80
2018-12-30T13:50:13.651Z,99470.02
2018-12-30T13:52:43.962Z,99461.63
2018-12-30T13:55:14.209Z,99463.22
2018-12-30T13:57:44.481Z,99465.02
2018-12-30T14:00:14.829Z,99453.70
2018-12-30T14:02:45.209Z,99453.95
2018-12-30T14:05:16.513Z,99455.92
2018-12-30T14:07:46.911Z,99440.51
2018-12-30T14:10:17.283Z,99446.29
2018-12-30T14:12:47.555Z,99433.41
2018-12-30T14:15:17.982Z,99428.78
2018-12-30T14:17:48.304Z,99426.80
2018-12-30T14:20:18.491Z,99427.66
2018-12-30T14:22:48.858Z,99448.11
2018-12-30T14:25:19.184Z,99442.63
2018-12-30T14:27:49.498Z,99439.91
2018-12-30T14:30:19.941Z,99450.83
2018-12-30T14:32:50.309Z,99450.22
2018-12-30T14:35:20.679Z,99463.27
2018-12-30T14:37:50.995Z,99465.22
2018-12-30T14:40:21.459Z,99453.84
2018-12-30T14:42:51.844Z,99467.81
2018-12-30T14:45:22.275Z,99469.93
2018-12-30T14:47:52.622Z,99471.25
2018-12-30T14:50:22.978Z,99469.61
2018-12-30T14:52:53.334Z,99472.92
2018-12-30T14:55:23.675Z,99477.20
2018-12-30T14:57:54.007Z,99478.52
2018-12-30T15:00:24.439Z,99495.23
2018-12-30T15:02:54.803Z,99483.52
2018-12-30T15:05:25.155Z,99482.86
2018-12-30T15:07:55.411Z,99493.09
2018-12-30T15:10:28.440Z,99499.19
2018-12-30T15:12:58.896Z,99508.72
2018-12-30T15:15:29.255Z,99509.77
2018-12-30T15:17:59.649Z,99513.87
2018-12-30T15:20:30.036Z,99501.03
2018-12-30T15:23:00.421Z,99520.02
2018-12-30T15:25:31.020Z,99512.16
2018-12-30T15:28:01.387Z,99523.14
2018-12-30T15:30:31.608Z,99511.11
2018-12-30T15:33:01.831Z,99512.08
2018-12-30T15:35:31.994Z,99505.98
2018-12-30T15:38:02.239Z,99510.42
2018-12-30T15:40:32.593Z,99503.36
2018-12-30T15:43:02.907Z,99497.91
2018-12-30T15:45:32.783Z,99498.09
2018-12-30T15:48:03.224Z,99496.45
2018-12-30T15:50:33.612Z,99495.13
2018-12-30T15:53:04.038Z,99494.83
2018-12-30T15:55:34.419Z,99502.73
2018-12-30T15:58:04.733Z,99495.83
2018-12-30T16:00:34.973Z,99497.48
2018-12-30T16:03:05.305Z,99502.21
2018-12-30T16:05:35.767Z,99504.06
2018-12-30T16:08:06.174Z,99520.20
2018-12-30T16:10:36.757Z,99535.08
2018-12-30T16:13:07.210Z,99540.71
2018-12-30T16:15:37.606Z,99553.59
2018-12-30T16:18:07.963Z,99545.20
2018-12-30T16:20:38.486Z,99538.75
2018-12-30T16:23:08.929Z,99537.33
2018-12-30T16:25:39.403Z,99526.70
2018-12-30T16:28:09.874Z,99521.39
2018-12-30T16:30:40.447Z,99517.97
2018-12-30T16:33:10.750Z,99520.47
2018-12-30T16:35:44.542Z,99528.21
2018-12-30T16:38:17.443Z,99526.73
2018-12-30T16:40:50.687Z,99520.97
2018-12-30T16:43:20.888Z,99515.02
2018-12-30T16:45:51.321Z,99511.06
2018-12-30T16:48:21.789Z,99504.44
2018-12-30T16:50:52.293Z,99491.91
2018-12-30T16:53:22.630Z,99495.57
2018-12-30T16:55:53.115Z,99489.79
2018-12-30T16:58:24.497Z,99488.80
2018-12-30T17:00:55.059Z,99490.93
2018-12-30T17:03:25.366Z,99485.66
2018-12-30T17:05:55.785Z,99482.37
2018-12-30T17:08:26.191Z,99476.61
2018-12-30T17:10:57.484Z,99483.71
2018-12-30T17:13:27.936Z,99491.47
2018-12-30T17:15:58.328Z,99496.58
2018-12-30T17:18:28.930Z,99501.52
2018-12-30T17:20:59.563Z,99491.64
2018-12-30T17:23:29.889Z,99488.34
2018-12-30T17:26:00.158Z,99495.45
2018-12-30T17:28:30.632Z,99490.97
2018-12-30T17:31:01.053Z,99494.78
2018-12-30T17:33:31.420Z,99496.09
2018-12-30T17:36:01.703Z,99492.98
2018-12-30T17:38:31.513Z,99504.52
2018-12-30T17:41:02.008Z,99502.86
2018-12-30T17:43:31.802Z,99505.81
2018-12-30T17:46:02.190Z,99506.97
2018-12-30T17:48:32.565Z,99508.80
2018-12-30T17:51:02.990Z,99519.84
2018-12-30T17:53:33.296Z,99515.53
2018-12-30T17:56:03.956Z,99513.38
2018-12-30T17:58:34.387Z,99511.92
2018-12-30T18:01:04.848Z,99508.30
2018-12-30T18:03:35.119Z,99509.94
2018-12-30T18:06:05.572Z,99503.51
2018-12-30T18:08:36.046Z,99513.09
2018-12-30T18:11:06.431Z,99520.16
2018-12-30T18:13:36.783Z,99513.72
2018-12-30T18:16:07.265Z,99512.74
2018-12-30T18:18:37.598Z,99515.05
2018-12-30T18:21:07.995Z,99512.90
2018-12-30T18:23:39.346Z,99510.26
2018-12-30T18:26:09.943Z,99511.42
2018-12-30T18:28:40.472Z,99513.09
2018-12-30T18:31:10.364Z,99514.41
2018-12-30T18:33:40.931Z,99521.66
2018-12-30T18:36:11.430Z,99521.84
2018-12-30T18:38:41.832Z,99505.83
2018-12-30T18:41:12.222Z,99505.47
2018-12-30T18:43:42.698Z,99491.31
2018-12-30T18:46:13.161Z,99490.32
2018-12-30T18:48:43.540Z,99483.56
2018-12-30T18:51:13.855Z,99489.34
2018-12-30T18:53:44.221Z,99487.52
2018-12-30T18:56:14.632Z,99497.56
2018-12-30T18:58:45.033Z,99501.52
2018-12-30T19:01:15.440Z,99496.44
2018-12-30T19:03:45.940Z,99501.86
2018-12-30T19:06:16.351Z,99501.22
2018-12-30T19:08:46.635Z,99507.14
2018-12-30T19:11:17.029Z,99507.48
2018-12-30T19:13:47.367Z,99497.56
2018-12-30T19:16:17.724Z,99495.45
2018-12-30T19:18:47.997Z,99496.25
2018-12-30T19:21:18.452Z,99495.24
2018-12-30T19:23:48.697Z,99493.80
2018-12-30T19:26:19.073Z,99490.97
2018-12-30T19:28:49.689Z,99491.31
2018-12-30T19:31:20.005Z,99480.77
2018-12-30T19:33:50.363Z,99476.46
2018-12-30T19:36:20.803Z,99477.47
2018-12-30T19:38:51.128Z,99485.39
2018-12-30T19:41:21.734Z,99482.58
2018-12-30T19:43:52.073Z,99478.12
2018-12-30T19:46:22.570Z,99481.09
2018-12-30T19:48:52.907Z,99496.77
2018-12-30T19:51:23.222Z,99492.28
2018-12-30T19:53:53.550Z,99483.88
2018-12-30T19:56:24.000Z,99486.36
2018-12-30T19:58:54.421Z,99478.12
2018-12-30T20:01:24.798Z,99477.29
2018-12-30T20:03:55.419Z,99474.49
2018-12-30T20:06:25.906Z,99476.15
2018-12-30T20:08:56.486Z,99489.00
2018-12-30T20:11:27.063Z,99493.94
2018-12-30T20:13:57.474Z,99490.66
2018-12-30T20:16:27.943Z,99489.64
2018-12-30T20:18:58.161Z,99493.59
2018-12-30T20:21:28.611Z,99492.28
2018-12-30T20:23:58.979Z,99492.30
2018-12-30T20:26:30.038Z,99490.68
2018-12-30T20:29:00.508Z,99481.92
2018-12-30T20:31:30.928Z,99487.20
2018-12-30T20:34:01.301Z,99489.36
2018-12-30T20:36:31.540Z,99479.30
2018-12-30T20:39:01.810Z,99473.69
2018-12-30T20:41:32.108Z,99475.98
2018-12-30T20:44:02.257Z,99477.15
2018-12-30T20:46:32.716Z,99476.00
2018-12-30T20:49:03.036Z,99477.17
2018-12-30T20:51:33.460Z,99475.03
2018-12-30T20:54:03.751Z,99472.88
2018-12-30T20:56:37.856Z,99474.70
2018-12-30T20:59:06.850Z,99471.23
2018-12-30T21:01:37.403Z,99477.00
2018-12-30T21:04:07.931Z,99465.80
2018-12-30T21:09:01.763Z,99458.73
2018-12-30T21:11:32.232Z,99462.34
2018-12-30T21:14:02.644Z,99452.30
2018-12-30T21:16:33.012Z,99445.05
2018-12-30T21:19:03.412Z,99449.17
2018-12-30T21:21:33.770Z,99456.25
2018-12-30T21:24:03.942Z,99443.22
2018-12-30T21:26:34.410Z,99454.45
2018-12-30T21:29:04.800Z,99448.19
2018-12-30T21:31:36.117Z,99450.98
2018-12-30T21:34:06.529Z,99448.68
2018-12-30T21:36:36.908Z,99445.37
2018-12-30T21:39:09.399Z,99445.06
2018-12-30T21:41:39.774Z,99449.02
2018-12-30T21:44:10.140Z,99445.06
2018-12-30T21:46:40.527Z,99440.28
2018-12-30T21:49:10.795Z,99434.33
2018-12-30T21:51:41.341Z,99434.18
2018-12-30T21:54:11.163Z,99432.52
2018-12-30T21:56:41.475Z,99437.64
2018-12-30T21:59:11.745Z,99431.05
2018-12-30T22:01:42.085Z,99431.20
2018-12-30T22:04:12.277Z,99431.70
2018-12-30T22:06:42.654Z,99433.84
2018-12-30T22:09:13.100Z,99429.39
2018-12-30T22:11:43.573Z,99430.72
2018-12-30T22:14:13.833Z,99432.52
2018-12-30T22:16:44.246Z,99427.25
2018-12-30T22:19:14.608Z,99432.86
2018-12-30T22:21:44.399Z,99426.60
2018-12-30T22:24:14.808Z,99420.02
2018-12-30T22:26:45.093Z,99416.36
2018-12-30T22:29:15.493Z,99422.46
2018-12-30T22:31:45.358Z,99413.23
2018-12-30T22:34:15.965Z,99413.07
2018-12-30T22:36:46.212Z,99410.94
2018-12-30T22:39:16.681Z,99415.37
2018-12-30T22:41:46.962Z,99419.32
2018-12-30T22:44:17.285Z,99415.86
2018-12-30T22:46:47.766Z,99417.03
2018-12-30T22:49:18.069Z,99418.35
2018-12-30T22:51:47.936Z,99420.31
2018-12-30T22:54:18.274Z,99419.16
2018-12-30T22:56:48.631Z,99413.90
2018-12-30T22:59:19.067Z,99408.94
2018-12-30T23:01:49.793Z,99408.13
2018-12-30T23:04:20.172Z,99406.32
2018-12-30T23:06:50.648Z,99399.55
2018-12-30T23:09:20.999Z,99401.84
2018-12-30T23:11:51.734Z,99404.33
2018-12-30T23:14:22.053Z,99405.16
2018-12-30T23:16:52.383Z,99400.03
2018-12-30T23:19:23.624Z,99402.67
2018-12-30T23:21:55.070Z,99399.20
2018-12-30T23:24:25.553Z,99397.39
2018-12-30T23:26:56.022Z,99396.08
2018-12-30T23:29:26.268Z,99395.58
2018-12-30T23:31:56.526Z,99390.80
2018-12-30T23:34:26.769Z,99395.09
2018-12-30T23:36:57.021Z,99387.85
2018-12-30T23:39:27.336Z,99396.04
2018-12-30T23:41:57.800Z,99404.31
2018-12-30T23:44:28.184Z,99393.77
2018-12-30T23:46:58.484Z,99401.33
2018-12-30T23:49:28.747Z,99395.08
2018-12-30T23:51:58.985Z,99393.10
2018-12-30T23:54:29.283Z,99382.56
2018-12-30T23:56:59.546Z,99385.68
2018-12-30T23:59:29.680Z,99385.34
